Time,TemperatureF,DewpointF,PressureIn,WindDirection,WindDirectionDegrees,WindSpeedMPH,WindSpeedGustMPH,Humidity,HourlyPrecipIn,Conditions,Clouds,dailyrainin,SoftwareType,DateUTC
2013-01-18 00:00:00,27.5,12.6,30.04,NW,317,1.0,6.0,53,0.00,,---,0.27,VWS V14.01,2013-01-18 05:00:00,
2013-01-18 00:01:00,27.5,13.1,30.03,NW,317,0.0,6.0,54,0.00,,---,0.27,VWS V14.01,2013-01-18 05:01:00,
2013-01-18 00:02:00,27.5,13.5,30.03,NW,317,0.0,6.0,55,0.00,,---,0.27,VWS V14.01,2013-01-18 05:02:00,
2013-01-18 00:03:00,27.5,13.1,30.04,NW,317,1.0,6.0,54,0.00,,---,0.27,VWS V14.01,2013-01-18 05:03:00,
2013-01-18 00:08:00,27.5,13.1,30.04,NW,316,0.0,3.0,54,0.00,,---,0.00,VWS V14.01,2013-01-18 05:08:00,
2013-01-18 00:10:00,27.4,11.7,30.06,NW,305,1.0,7.0,51,0.00,,---,0.00,VWS V14.01,2013-01-18 05:10:00,
2013-01-18 00:13:00,27.4,13.0,30.06,NNW,336,6.0,6.0,54,0.00,,---,0.00,VWS V14.01,2013-01-18 05:13:00,
2013-01-18 00:15:00,27.4,12.5,30.06,NW,316,5.0,10.0,53,0.00,,---,0.00,VWS V14.01,2013-01-18 05:15:00,
2013-01-18 00:18:00,27.4,12.5,30.06,West,278,3.0,10.0,53,0.00,,---,0.00,VWS V14.01,2013-01-18 05:18:00,
2013-01-18 00:20:00,27.4,11.2,30.06,WNW,292,3.0,7.0,50,0.00,,---,0.00,VWS V14.01,2013-01-18 05:20:00,
2013-01-18 00:23:00,27.4,11.2,30.06,WNW,288,4.0,7.0,50,0.00,,---,0.00,VWS V14.01,2013-01-18 05:23:00,
2013-01-18 00:25:00,27.4,10.3,30.06,WNW,302,4.0,7.0,48,0.00,,---,0.00,VWS V14.01,2013-01-18 05:25:00,
2013-01-18 00:28:00,27.4,10.3,30.06,WNW,295,4.0,7.0,48,0.00,,---,0.00,VWS V14.01,2013-01-18 05:28:00,
2013-01-18 00:30:00,27.3,10.7,30.06,NW,320,3.0,5.0,49,0.00,,---,0.00,VWS V14.01,2013-01-18 05:30:00,
2013-01-18 00:33:00,27.3,10.7,30.06,NW,315,4.0,5.0,49,0.00,,---,0.00,VWS V14.01,2013-01-18 05:33:00,
2013-01-18 00:38:00,27.2,10.6,30.06,WNW,302,1.0,7.0,49,0.00,,---,0.00,VWS V14.01,2013-01-18 05:38:00,
2013-01-18 00:40:00,27.2,11.0,30.05,West,271,3.0,6.0,50,0.00,,---,0.00,VWS V14.01,2013-01-18 05:40:00,
2013-01-18 00:43:00,27.2,10.6,30.05,West,271,3.0,6.0,49,0.00,,---,0.00,VWS V14.01,2013-01-18 05:43:00,
2013-01-18 00:45:00,27.1,10.5,30.07,NNW,334,5.0,5.0,49,0.00,,---,0.00,VWS V14.01,2013-01-18 05:45:00,
2013-01-18 00:48:00,27.1,10.5,30.07,NNW,334,5.0,5.0,49,0.00,,---,0.00,VWS V14.01,2013-01-18 05:48:00,
2013-01-18 00:50:00,27.1,9.6,30.07,NNW,344,0.0,7.0,47,0.00,,---,0.00,VWS V14.01,2013-01-18 05:50:00,
2013-01-18 00:53:00,27.1,9.6,30.07,NNW,344,0.0,7.0,47,0.00,,---,0.00,VWS V14.01,2013-01-18 05:53:00,
2013-01-18 00:55:00,27.0,10.4,30.07,NNW,340,6.0,7.0,49,0.00,,---,0.00,VWS V14.01,2013-01-18 05:55:00,
2013-01-18 00:58:00,27.0,10.4,30.07,NNW,340,6.0,7.0,49,0.00,,---,0.00,VWS V14.01,2013-01-18 05:58:00,
2013-01-18 01:00:00,27.0,9.5,30.05,NW,310,2.0,9.0,47,0.00,,---,0.00,VWS V14.01,2013-01-18 06:00:00,
2013-01-18 01:04:00,27.0,9.5,30.05,NW,310,2.0,9.0,47,0.00,,---,0.00,VWS V14.01,2013-01-18 06:04:00,
2013-01-18 01:05:00,26.9,10.3,30.05,NW,315,3.0,7.0,49,0.00,,---,0.00,VWS V14.01,2013-01-18 06:05:00,
2013-01-18 01:09:00,26.9,10.3,30.05,NW,314,6.0,6.0,49,0.00,,---,0.00,VWS V14.01,2013-01-18 06:09:00,
2013-01-18 01:10:00,26.8,10.2,30.06,NNW,346,0.0,8.0,49,0.00,,---,0.00,VWS V14.01,2013-01-18 06:10:00,
2013-01-18 01:14:00,26.8,10.2,30.06,NNW,346,0.0,0.0,49,0.00,,---,0.00,VWS V14.01,2013-01-18 06:14:00,
2013-01-18 01:15:00,26.8,10.7,30.06,NW,309,4.0,10.0,50,0.00,,---,0.00,VWS V14.01,2013-01-18 06:15:00,
2013-01-18 01:19:00,26.8,10.7,30.06,NW,309,3.0,4.0,50,0.00,,---,0.00,VWS V14.01,2013-01-18 06:19:00,
2013-01-18 01:20:00,26.7,9.7,30.06,NNW,331,0.0,8.0,48,0.00,,---,0.00,VWS V14.01,2013-01-18 06:20:00,
2013-01-18 01:24:00,26.7,9.7,30.05,WNW,298,5.0,6.0,48,0.00,,---,0.00,VWS V14.01,2013-01-18 06:24:00,
2013-01-18 01:25:00,26.6,9.6,30.05,NW,322,3.0,7.0,48,0.00,,---,0.00,VWS V14.01,2013-01-18 06:25:00,
2013-01-18 01:29:00,26.6,9.6,30.06,NNW,329,5.0,5.0,48,0.00,,---,0.00,VWS V14.01,2013-01-18 06:29:00,
2013-01-18 01:30:00,26.5,9.9,30.05,NW,325,0.0,5.0,49,0.00,,---,0.00,VWS V14.01,2013-01-18 06:30:00,
2013-01-18 01:34:00,26.6,9.6,30.05,NW,325,0.0,1.0,48,0.00,,---,0.00,VWS V14.01,2013-01-18 06:34:00,
2013-01-18 01:35:00,26.5,9.9,30.05,NW,305,2.0,4.0,49,0.00,,---,0.00,VWS V14.01,2013-01-18 06:35:00,
2013-01-18 01:39:00,26.5,9.9,30.05,North,355,5.0,5.0,49,0.00,,---,0.00,VWS V14.01,2013-01-18 06:39:00,
2013-01-18 01:40:00,26.5,9.5,30.03,NW,314,2.0,6.0,48,0.00,,---,0.00,VWS V14.01,2013-01-18 06:40:00,
2013-01-18 01:44:00,26.5,9.9,30.03,NW,316,6.0,7.0,49,0.00,,---,0.00,VWS V14.01,2013-01-18 06:44:00,
2013-01-18 01:45:00,26.4,8.9,30.04,WNW,297,1.0,10.0,47,0.00,,---,0.00,VWS V14.01,2013-01-18 06:45:00,
2013-01-18 01:49:00,26.3,8.8,30.05,NW,326,11.0,11.0,47,0.00,,---,0.00,VWS V14.01,2013-01-18 06:49:00,
2013-01-18 01:50:00,26.3,7.9,30.06,West,260,2.0,11.0,45,0.00,,---,0.00,VWS V14.01,2013-01-18 06:50:00,
2013-01-18 01:54:00,26.3,7.9,30.06,NNW,344,8.0,8.0,45,0.00,,---,0.00,VWS V14.01,2013-01-18 06:54:00,
2013-01-18 01:55:00,26.2,7.3,30.06,NW,312,7.0,8.0,44,0.00,,---,0.00,VWS V14.01,2013-01-18 06:55:00,
2013-01-18 02:00:00,26.2,7.8,30.05,NW,315,2.0,7.0,45,0.00,,---,0.00,VWS V14.01,2013-01-18 07:00:00,
2013-01-18 02:05:00,26.2,8.3,30.07,NW,315,3.0,6.0,46,0.00,,---,0.00,VWS V14.01,2013-01-18 07:05:00,
2013-01-18 02:10:00,26.2,6.8,30.08,NNW,333,10.0,10.0,43,0.00,,---,0.00,VWS V14.01,2013-01-18 07:10:00,
2013-01-18 02:15:00,26.0,6.6,30.08,NNE,22,5.0,11.0,43,0.00,,---,0.00,VWS V14.01,2013-01-18 07:15:00,
2013-01-18 02:20:00,25.8,7.9,30.07,NNW,342,2.0,4.0,46,0.00,,---,0.00,VWS V14.01,2013-01-18 07:20:00,
2013-01-18 02:25:00,25.7,5.8,30.06,North,5,1.0,8.0,42,0.00,,---,0.00,VWS V14.01,2013-01-18 07:25:00,
2013-01-18 02:30:00,25.5,6.1,30.07,NNW,343,0.0,2.0,43,0.00,,---,0.00,VWS V14.01,2013-01-18 07:30:00,
2013-01-18 02:35:00,25.4,7.0,30.08,NW,315,7.0,7.0,45,0.00,,---,0.00,VWS V14.01,2013-01-18 07:35:00,
2013-01-18 02:40:00,25.3,8.4,30.08,NNW,346,4.0,4.0,48,0.00,,---,0.00,VWS V14.01,2013-01-18 07:40:00,
2013-01-18 02:45:00,25.0,7.6,30.09,NW,315,4.0,8.0,47,0.00,,---,0.00,VWS V14.01,2013-01-18 07:45:00,
2013-01-18 02:50:00,24.8,7.9,30.09,NNW,328,1.0,3.0,48,0.00,,---,0.00,VWS V14.01,2013-01-18 07:50:00,
2013-01-18 02:55:00,24.5,6.2,30.09,North,360,2.0,6.0,45,0.00,,---,0.00,VWS V14.01,2013-01-18 07:55:00,
2013-01-18 03:00:00,24.3,6.5,30.09,NW,319,9.0,11.0,46,0.00,,---,0.00,VWS V14.01,2013-01-18 08:00:00,
2013-01-18 03:05:00,24.1,5.8,30.08,NNW,345,6.0,9.0,45,0.00,,---,0.00,VWS V14.01,2013-01-18 08:05:00,
2013-01-18 03:10:00,23.6,5.9,30.10,WNW,301,6.0,10.0,46,0.00,,---,0.00,VWS V14.01,2013-01-18 08:10:00,
2013-01-18 03:11:00,23.8,5.6,30.09,WNW,298,5.0,8.0,45,0.00,,---,0.00,VWS V14.01,2013-01-18 08:11:00,
2013-01-18 03:15:00,23.3,4.1,30.09,NNW,332,8.0,11.0,43,0.00,,---,0.00,VWS V14.01,2013-01-18 08:15:00,
2013-01-18 03:16:00,23.5,6.2,30.10,NW,319,4.0,9.0,47,0.00,,---,0.00,VWS V14.01,2013-01-18 08:16:00,
2013-01-18 03:20:00,22.7,2.5,30.08,North,5,3.0,13.0,41,0.00,,---,0.00,VWS V14.01,2013-01-18 08:20:00,
2013-01-18 03:21:00,23.0,2.8,30.08,WNW,283,5.0,13.0,41,0.00,,---,0.00,VWS V14.01,2013-01-18 08:21:00,
2013-01-18 03:25:00,22.3,2.2,30.08,WNW,295,9.0,14.0,41,0.00,,---,0.00,VWS V14.01,2013-01-18 08:25:00,
2013-01-18 03:26:00,22.5,1.8,30.08,WNW,299,7.0,9.0,40,0.00,,---,0.00,VWS V14.01,2013-01-18 08:26:00,
2013-01-18 03:30:00,22.0,2.9,30.07,WNW,297,1.0,15.0,43,0.00,,---,0.00,VWS V14.01,2013-01-18 08:30:00,
2013-01-18 03:31:00,22.1,2.5,30.08,NNW,335,11.0,15.0,42,0.00,,---,0.00,VWS V14.01,2013-01-18 08:31:00,
2013-01-18 03:35:00,21.8,1.7,30.08,NNW,329,4.0,14.0,41,0.00,,---,0.00,VWS V14.01,2013-01-18 08:35:00,
2013-01-18 03:36:00,21.8,1.7,30.08,West,279,3.0,12.0,41,0.00,,---,0.00,VWS V14.01,2013-01-18 08:36:00,
2013-01-18 03:40:00,21.6,2.1,30.08,NW,310,2.0,12.0,42,0.00,,---,0.00,VWS V14.01,2013-01-18 08:40:00,
2013-01-18 03:41:00,21.7,3.2,30.07,WSW,242,8.0,11.0,44,0.00,,---,0.00,VWS V14.01,2013-01-18 08:41:00,
2013-01-18 03:45:00,21.4,2.9,30.08,NNW,327,9.0,14.0,44,0.00,,---,0.00,VWS V14.01,2013-01-18 08:45:00,
2013-01-18 03:46:00,21.4,0.8,30.08,North,355,3.0,14.0,40,0.00,,---,0.00,VWS V14.01,2013-01-18 08:46:00,
2013-01-18 03:50:00,21.2,1.7,30.08,NNW,341,13.0,14.0,42,0.00,,---,0.00,VWS V14.01,2013-01-18 08:50:00,
2013-01-18 03:51:00,21.3,1.8,30.08,North,355,3.0,14.0,42,0.00,,---,0.00,VWS V14.01,2013-01-18 08:51:00,
2013-01-18 03:55:00,20.9,1.9,30.10,WNW,300,14.0,22.0,43,0.00,,---,0.00,VWS V14.01,2013-01-18 08:55:00,
2013-01-18 03:56:00,21.1,2.1,30.09,NW,324,12.0,22.0,43,0.00,,---,0.00,VWS V14.01,2013-01-18 08:56:00,
2013-01-18 04:00:00,20.8,2.8,30.11,NW,311,2.0,14.0,45,0.00,,---,0.00,VWS V14.01,2013-01-18 09:00:00,
2013-01-18 04:01:00,20.8,2.3,30.10,NNW,344,7.0,14.0,44,0.00,,---,0.00,VWS V14.01,2013-01-18 09:01:00,
2013-01-18 04:07:00,20.7,3.2,30.10,North,355,3.0,4.0,46,0.00,,---,0.00,VWS V14.01,2013-01-18 09:07:00,
2013-01-18 04:10:00,20.6,3.6,30.09,NNW,327,9.0,17.0,47,0.00,,---,0.00,VWS V14.01,2013-01-18 09:10:00,
2013-01-18 04:12:00,20.7,4.1,30.10,NW,316,4.0,17.0,48,0.00,,---,0.00,VWS V14.01,2013-01-18 09:12:00,
2013-01-18 04:15:00,20.4,2.9,30.10,NW,304,4.0,13.0,46,0.00,,---,0.00,VWS V14.01,2013-01-18 09:15:00,
2013-01-18 04:17:00,20.5,3.0,30.10,NNW,329,2.0,13.0,46,0.00,,---,0.00,VWS V14.01,2013-01-18 09:17:00,
2013-01-18 04:20:00,20.3,3.3,30.09,NW,313,3.0,10.0,47,0.00,,---,0.00,VWS V14.01,2013-01-18 09:20:00,
2013-01-18 04:22:00,20.4,2.9,30.09,NNW,336,4.0,10.0,46,0.00,,---,0.00,VWS V14.01,2013-01-18 09:22:00,
2013-01-18 04:27:00,20.3,2.4,30.10,NNW,335,8.0,10.0,45,0.00,,---,0.00,VWS V14.01,2013-01-18 09:27:00,
2013-01-18 04:30:00,20.0,3.0,30.10,NW,319,7.0,19.0,47,0.00,,---,0.00,VWS V14.01,2013-01-18 09:30:00,
2013-01-18 04:32:00,20.1,3.1,30.10,WNW,303,9.0,19.0,47,0.00,,---,0.00,VWS V14.01,2013-01-18 09:32:00,
2013-01-18 04:35:00,19.9,2.9,30.10,North,360,3.0,15.0,47,0.00,,---,0.00,VWS V14.01,2013-01-18 09:35:00,
2013-01-18 04:37:00,19.9,2.9,30.10,North,5,6.0,15.0,47,0.00,,---,0.00,VWS V14.01,2013-01-18 09:37:00,
2013-01-18 04:42:00,19.8,2.8,30.11,WNW,290,4.0,13.0,47,0.00,,---,0.00,VWS V14.01,2013-01-18 09:42:00,
2013-01-18 04:45:00,19.7,2.3,30.12,North,350,3.0,15.0,46,0.00,,---,0.00,VWS V14.01,2013-01-18 09:45:00,
2013-01-18 04:47:00,19.7,2.3,30.12,North,5,8.0,15.0,46,0.00,,---,0.00,VWS V14.01,2013-01-18 09:47:00,
2013-01-18 04:50:00,19.5,2.1,30.13,NW,326,4.0,11.0,46,0.00,,---,0.00,VWS V14.01,2013-01-18 09:50:00,
2013-01-18 04:52:00,19.5,2.1,30.13,WNW,290,3.0,11.0,46,0.00,,---,0.00,VWS V14.01,2013-01-18 09:52:00,
2013-01-18 04:55:00,19.3,2.4,30.12,NW,315,2.0,13.0,47,0.00,,---,0.00,VWS V14.01,2013-01-18 09:55:00,
2013-01-18 04:57:00,19.3,2.4,30.12,NW,323,8.0,13.0,47,0.00,,---,0.00,VWS V14.01,2013-01-18 09:57:00,
2013-01-18 05:02:00,19.1,2.7,30.13,WNW,303,4.0,9.0,48,0.00,,---,0.00,VWS V14.01,2013-01-18 10:02:00,
2013-01-18 05:07:00,19.0,2.6,30.13,NNW,338,5.0,6.0,48,0.00,,---,0.00,VWS V14.01,2013-01-18 10:07:00,
2013-01-18 05:10:00,18.7,2.7,30.14,NNW,329,4.0,10.0,49,0.00,,---,0.00,VWS V14.01,2013-01-18 10:10:00,
2013-01-18 05:12:00,18.8,3.2,30.14,NW,305,5.0,10.0,50,0.00,,---,0.00,VWS V14.01,2013-01-18 10:12:00,
2013-01-18 05:15:00,18.4,2.4,30.14,NNW,345,1.0,12.0,49,0.00,,---,0.00,VWS V14.01,2013-01-18 10:15:00,
2013-01-18 05:17:00,18.5,2.1,30.15,NNW,329,4.0,12.0,48,0.00,,---,0.00,VWS V14.01,2013-01-18 10:17:00,
2013-01-18 05:20:00,18.1,1.3,30.14,NNW,334,12.0,13.0,47,0.00,,---,0.00,VWS V14.01,2013-01-18 10:20:00,
2013-01-18 05:22:00,18.2,2.7,30.14,NW,323,2.0,13.0,50,0.00,,---,0.00,VWS V14.01,2013-01-18 10:22:00,
2013-01-18 05:25:00,17.9,1.5,30.15,NW,325,3.0,16.0,48,0.00,,---,0.00,VWS V14.01,2013-01-18 10:25:00,
2013-01-18 05:27:00,18.0,1.6,30.15,NNW,335,1.0,16.0,48,0.00,,---,0.00,VWS V14.01,2013-01-18 10:27:00,
2013-01-18 05:32:00,17.8,1.0,30.15,NNE,19,9.0,10.0,47,0.00,,---,0.00,VWS V14.01,2013-01-18 10:32:00,
2013-01-18 05:37:00,17.6,0.8,30.15,NW,319,7.0,10.0,47,0.00,,---,0.00,VWS V14.01,2013-01-18 10:37:00,
2013-01-18 05:42:00,17.4,0.2,30.16,NW,309,7.0,14.0,46,0.00,,---,0.00,VWS V14.01,2013-01-18 10:42:00,
2013-01-18 05:47:00,17.3,-0.9,30.16,North,10,12.0,13.0,44,0.00,,---,0.00,VWS V14.01,2013-01-18 10:47:00,
2013-01-18 05:50:00,17.1,-0.6,30.16,NNW,339,5.0,16.0,45,0.00,,---,0.00,VWS V14.01,2013-01-18 10:50:00,
2013-01-18 05:52:00,17.1,-1.5,30.16,WNW,294,7.0,16.0,43,0.00,,---,0.00,VWS V14.01,2013-01-18 10:52:00,
2013-01-18 05:55:00,17.0,-0.2,30.16,NNW,328,3.0,9.0,46,0.00,,---,0.00,VWS V14.01,2013-01-18 10:55:00,
2013-01-18 05:57:00,17.0,-0.7,30.16,North,5,4.0,9.0,45,0.00,,---,0.00,VWS V14.01,2013-01-18 10:57:00,
2013-01-18 06:00:00,16.8,-0.9,30.17,North,355,8.0,13.0,45,0.00,,---,0.00,VWS V14.01,2013-01-18 11:00:00,
2013-01-18 06:02:00,16.8,-0.9,30.17,NW,323,7.0,13.0,45,0.00,,---,0.00,VWS V14.01,2013-01-18 11:02:00,
2013-01-18 06:05:00,16.6,-0.1,30.17,North,355,10.0,10.0,47,0.00,,---,0.00,VWS V14.01,2013-01-18 11:05:00,
2013-01-18 06:08:00,16.7,-0.5,30.17,NW,315,2.0,8.0,46,0.00,,---,0.00,VWS V14.01,2013-01-18 11:08:00,
2013-01-18 06:10:00,16.5,-0.2,30.18,NW,319,3.0,11.0,47,0.00,,---,0.00,VWS V14.01,2013-01-18 11:10:00,
2013-01-18 06:13:00,16.5,-0.7,30.18,NW,319,4.0,11.0,46,0.00,,---,0.00,VWS V14.01,2013-01-18 11:13:00,
2013-01-18 06:15:00,16.3,-0.8,30.18,NW,304,0.0,10.0,46,0.00,,---,0.00,VWS V14.01,2013-01-18 11:15:00,
2013-01-18 06:18:00,16.4,-0.3,30.18,NNW,339,7.0,10.0,47,0.00,,---,0.00,VWS V14.01,2013-01-18 11:18:00,
2013-01-18 06:20:00,16.2,-0.9,30.19,NNW,333,5.0,10.0,46,0.00,,---,0.00,VWS V14.01,2013-01-18 11:20:00,
2013-01-18 06:23:00,16.2,-1.4,30.19,NW,321,5.0,10.0,45,0.00,,---,0.00,VWS V14.01,2013-01-18 11:23:00,
2013-01-18 06:25:00,16.2,-0.5,30.20,WNW,297,4.0,10.0,47,0.00,,---,0.00,VWS V14.01,2013-01-18 11:25:00,
2013-01-18 06:28:00,16.1,-0.6,30.20,NW,319,5.0,10.0,47,0.00,,---,0.00,VWS V14.01,2013-01-18 11:28:00,
2013-01-18 06:30:00,16.0,-0.2,30.20,NW,313,2.0,9.0,48,0.00,,---,0.00,VWS V14.01,2013-01-18 11:30:00,
2013-01-18 06:33:00,16.0,-0.2,30.20,NW,321,7.0,9.0,48,0.00,,---,0.00,VWS V14.01,2013-01-18 11:33:00,
2013-01-18 06:35:00,15.9,0.1,30.20,WNW,291,4.0,8.0,49,0.00,,---,0.00,VWS V14.01,2013-01-18 11:35:00,
2013-01-18 06:38:00,15.9,0.1,30.20,NNW,346,7.0,8.0,49,0.00,,---,0.00,VWS V14.01,2013-01-18 11:38:00,
2013-01-18 06:40:00,15.7,0.4,30.20,NNW,337,7.0,7.0,50,0.00,,---,0.00,VWS V14.01,2013-01-18 11:40:00,
2013-01-18 06:43:00,15.7,0.4,30.20,NW,309,1.0,6.0,50,0.00,,---,0.00,VWS V14.01,2013-01-18 11:43:00,
2013-01-18 06:45:00,15.6,-0.2,30.21,NW,323,2.0,9.0,49,0.00,,---,0.00,VWS V14.01,2013-01-18 11:45:00,
2013-01-18 06:48:00,15.6,-0.2,30.21,NW,323,3.0,9.0,49,0.00,,---,0.00,VWS V14.01,2013-01-18 11:48:00,
2013-01-18 06:50:00,15.5,-0.2,30.22,NW,313,2.0,8.0,49,0.00,,---,0.00,VWS V14.01,2013-01-18 11:50:00,
2013-01-18 06:53:00,15.5,-0.2,30.22,NW,313,0.0,8.0,49,0.00,,---,0.00,VWS V14.01,2013-01-18 11:53:00,
2013-01-18 06:55:00,15.4,-0.3,30.22,NW,321,5.0,8.0,49,0.00,,---,0.00,VWS V14.01,2013-01-18 11:55:00,
2013-01-18 06:58:00,15.4,0.1,30.22,NNW,340,6.0,8.0,50,0.00,,---,0.00,VWS V14.01,2013-01-18 11:58:00,
2013-01-18 07:00:00,15.2,-0.5,30.22,NW,321,2.0,8.0,49,0.00,,---,0.00,VWS V14.01,2013-01-18 12:00:00,
2013-01-18 07:03:00,15.2,-0.5,30.22,NW,321,3.0,8.0,49,0.00,,---,0.00,VWS V14.01,2013-01-18 12:03:00,
2013-01-18 07:05:00,15.1,-0.6,30.22,NW,324,4.0,8.0,49,0.00,,---,0.00,VWS V14.01,2013-01-18 12:05:00,
2013-01-18 07:08:00,15.1,-0.6,30.22,NW,324,4.0,8.0,49,0.00,,---,0.00,VWS V14.01,2013-01-18 12:08:00,
2013-01-18 07:10:00,15.0,-0.3,30.23,NW,322,5.0,11.0,50,0.00,,---,0.00,VWS V14.01,2013-01-18 12:10:00,
2013-01-18 07:13:00,15.0,-0.3,30.23,NW,322,5.0,11.0,50,0.00,,---,0.00,VWS V14.01,2013-01-18 12:13:00,
2013-01-18 07:15:00,14.8,-0.9,30.24,NNW,331,2.0,11.0,49,0.00,,---,0.00,VWS V14.01,2013-01-18 12:15:00,
2013-01-18 07:18:00,14.8,-0.9,30.24,NNW,331,2.0,11.0,49,0.00,,---,0.00,VWS V14.01,2013-01-18 12:18:00,
2013-01-18 07:20:00,14.6,-0.6,30.24,NW,326,7.0,11.0,50,0.00,,---,0.00,VWS V14.01,2013-01-18 12:20:00,
2013-01-18 07:23:00,14.6,-0.6,30.24,NW,309,4.0,11.0,50,0.00,,---,0.00,VWS V14.01,2013-01-18 12:23:00,
2013-01-18 07:25:00,14.5,-0.7,30.24,NNW,333,6.0,7.0,50,0.00,,---,0.00,VWS V14.01,2013-01-18 12:25:00,
2013-01-18 07:28:00,14.5,-0.7,30.24,NW,312,3.0,7.0,50,0.00,,---,0.00,VWS V14.01,2013-01-18 12:28:00,
2013-01-18 07:30:00,14.3,-0.9,30.25,NNW,342,5.0,7.0,50,0.00,,---,0.00,VWS V14.01,2013-01-18 12:30:00,
2013-01-18 07:33:00,14.3,-0.9,30.25,NNW,342,5.0,7.0,50,0.00,,---,0.00,VWS V14.01,2013-01-18 12:33:00,
2013-01-18 07:35:00,14.3,-0.9,30.25,NNW,340,4.0,7.0,50,0.00,,---,0.00,VWS V14.01,2013-01-18 12:35:00,
2013-01-18 07:38:00,14.3,-0.9,30.25,NNW,340,4.0,7.0,50,0.00,,---,0.00,VWS V14.01,2013-01-18 12:38:00,
2013-01-18 07:40:00,14.2,-1.0,30.26,NNW,327,2.0,11.0,50,0.00,,---,0.00,VWS V14.01,2013-01-18 12:40:00,
2013-01-18 07:43:00,14.2,-1.0,30.26,NNW,327,2.0,11.0,50,0.00,,---,0.00,VWS V14.01,2013-01-18 12:43:00,
2013-01-18 07:45:00,14.2,-1.0,30.27,NW,318,5.0,11.0,50,0.00,,---,0.00,VWS V14.01,2013-01-18 12:45:00,
2013-01-18 07:48:00,14.2,-1.0,30.27,NW,318,5.0,11.0,50,0.00,,---,0.00,VWS V14.01,2013-01-18 12:48:00,
2013-01-18 07:50:00,14.1,-1.1,30.27,NW,313,4.0,11.0,50,0.00,,---,0.00,VWS V14.01,2013-01-18 12:50:00,
2013-01-18 07:53:00,14.1,-1.1,30.27,NW,317,5.0,11.0,50,0.00,,---,0.00,VWS V14.01,2013-01-18 12:53:00,
2013-01-18 07:58:00,14.1,-0.7,30.27,WNW,292,4.0,8.0,51,0.00,,---,0.00,VWS V14.01,2013-01-18 12:58:00,
2013-01-18 08:00:00,14.2,-1.0,30.27,WNW,282,1.0,8.0,50,0.00,,---,0.00,VWS V14.01,2013-01-18 13:00:00,
2013-01-18 08:04:00,14.2,-1.0,30.27,WNW,282,1.0,8.0,50,0.00,,---,0.00,VWS V14.01,2013-01-18 13:04:00,
2013-01-18 08:09:00,14.2,-0.6,30.28,WNW,301,2.0,7.0,51,0.00,,---,0.00,VWS V14.01,2013-01-18 13:09:00,
2013-01-18 08:10:00,14.3,-0.9,30.27,NW,312,4.0,9.0,50,0.00,,---,0.00,VWS V14.01,2013-01-18 13:10:00,
2013-01-18 08:14:00,14.3,-0.9,30.27,NW,312,4.0,9.0,50,0.00,,---,0.00,VWS V14.01,2013-01-18 13:14:00,
2013-01-18 08:15:00,14.3,-0.5,30.28,NW,310,8.0,8.0,51,0.00,,---,0.00,VWS V14.01,2013-01-18 13:15:00,
2013-01-18 08:19:00,14.3,-0.5,30.28,NNW,333,8.0,8.0,51,0.00,,---,0.00,VWS V14.01,2013-01-18 13:19:00,
2013-01-18 08:20:00,14.5,-0.3,30.28,NNW,342,4.0,10.0,51,0.00,,---,0.00,VWS V14.01,2013-01-18 13:20:00,
2013-01-18 08:24:00,14.5,-0.7,30.28,WNW,294,4.0,4.0,50,0.00,,---,0.00,VWS V14.01,2013-01-18 13:24:00,
2013-01-18 08:25:00,14.6,-0.6,30.28,West,274,2.0,9.0,50,0.00,,---,0.00,VWS V14.01,2013-01-18 13:25:00,
2013-01-18 08:29:00,14.6,-0.2,30.28,West,274,0.0,2.0,51,0.00,,---,0.00,VWS V14.01,2013-01-18 13:29:00,
2013-01-18 08:30:00,14.8,-0.5,30.28,West,266,4.0,7.0,50,0.00,,---,0.00,VWS V14.01,2013-01-18 13:30:00,
2013-01-18 08:34:00,14.8,-0.5,30.28,NNW,348,6.0,6.0,50,0.00,,---,0.00,VWS V14.01,2013-01-18 13:34:00,
2013-01-18 08:35:00,14.9,-0.8,30.29,WNW,299,3.0,10.0,49,0.00,,---,0.00,VWS V14.01,2013-01-18 13:35:00,
2013-01-18 08:39:00,14.9,-0.8,30.29,NW,315,2.0,3.0,49,0.00,,---,0.00,VWS V14.01,2013-01-18 13:39:00,
2013-01-18 08:40:00,15.0,-0.3,30.30,West,265,5.0,8.0,50,0.00,,---,0.00,VWS V14.01,2013-01-18 13:40:00,
2013-01-18 08:44:00,15.0,-0.3,30.30,West,275,4.0,5.0,50,0.00,,---,0.00,VWS V14.01,2013-01-18 13:44:00,
2013-01-18 08:45:00,15.0,-1.1,30.30,NNW,340,5.0,11.0,48,0.00,,---,0.00,VWS V14.01,2013-01-18 13:45:00,
2013-01-18 08:49:00,15.0,-0.7,30.30,WSW,256,3.0,13.0,49,0.00,,---,0.00,VWS V14.01,2013-01-18 13:49:00,
2013-01-18 08:50:00,15.1,-1.0,30.30,NW,317,2.0,13.0,48,0.00,,---,0.00,VWS V14.01,2013-01-18 13:50:00,
2013-01-18 08:54:00,15.1,-0.6,30.30,NW,317,2.0,2.0,49,0.00,,---,0.00,VWS V14.01,2013-01-18 13:54:00,
2013-01-18 08:55:00,15.3,0.0,30.30,West,261,6.0,7.0,50,0.00,,---,0.00,VWS V14.01,2013-01-18 13:55:00,
2013-01-18 08:59:00,15.3,-0.4,30.30,West,259,7.0,12.0,49,0.00,,---,0.00,VWS V14.01,2013-01-18 13:59:00,
2013-01-18 09:00:00,15.3,-0.9,30.30,WSW,250,1.0,12.0,48,0.00,,---,0.00,VWS V14.01,2013-01-18 14:00:00,
2013-01-18 09:04:00,15.3,-1.3,30.30,NNE,30,2.0,4.0,47,0.00,,---,0.00,VWS V14.01,2013-01-18 14:04:00,
2013-01-18 09:09:00,15.4,-0.8,30.30,WNW,284,2.0,4.0,48,0.00,,---,0.00,VWS V14.01,2013-01-18 14:09:00,
2013-01-18 09:10:00,15.6,-1.0,30.30,NW,319,3.0,7.0,47,0.00,,---,0.00,VWS V14.01,2013-01-18 14:10:00,
2013-01-18 09:15:00,15.6,-1.0,30.30,WNW,301,2.0,6.0,47,0.00,,---,0.00,VWS V14.01,2013-01-18 14:15:00,
2013-01-18 09:20:00,15.8,-2.2,30.31,West,279,5.0,9.0,44,0.00,,---,0.00,VWS V14.01,2013-01-18 14:20:00,
2013-01-18 09:25:00,16.0,-2.5,30.31,West,269,3.0,8.0,43,0.00,,---,0.00,VWS V14.01,2013-01-18 14:25:00,
2013-01-18 09:30:00,16.1,-2.5,30.31,WNW,288,8.0,15.0,43,0.00,,---,0.00,VWS V14.01,2013-01-18 14:30:00,
2013-01-18 09:35:00,16.2,-2.8,30.31,North,360,7.0,10.0,42,0.00,,---,0.00,VWS V14.01,2013-01-18 14:35:00,
2013-01-18 09:40:00,16.4,-2.2,30.32,NNW,327,5.0,11.0,43,0.00,,---,0.00,VWS V14.01,2013-01-18 14:40:00,
2013-01-18 09:45:00,16.6,-2.5,30.32,WSW,252,6.0,9.0,42,0.00,,---,0.00,VWS V14.01,2013-01-18 14:45:00,
2013-01-18 09:50:00,16.7,-1.9,30.32,North,5,4.0,10.0,43,0.00,,---,0.00,VWS V14.01,2013-01-18 14:50:00,
2013-01-18 09:55:00,17.0,-1.6,30.32,WNW,288,2.0,4.0,43,0.00,,---,0.00,VWS V14.01,2013-01-18 14:55:00,
2013-01-18 10:00:00,17.2,-1.9,30.32,WNW,290,7.0,11.0,42,0.00,,---,0.00,VWS V14.01,2013-01-18 15:00:00,
2013-01-18 10:05:00,17.3,-1.4,30.32,West,279,6.0,10.0,43,0.00,,---,0.00,VWS V14.01,2013-01-18 15:05:00,
2013-01-18 10:10:00,17.3,-2.9,30.32,NW,317,9.0,14.0,40,0.00,,---,0.00,VWS V14.01,2013-01-18 15:10:00,
2013-01-18 10:11:00,17.3,-2.3,30.32,North,5,4.0,10.0,41,0.00,,---,0.00,VWS V14.01,2013-01-18 15:11:00,
2013-01-18 10:15:00,17.4,-1.8,30.32,WNW,298,5.0,10.0,42,0.00,,---,0.00,VWS V14.01,2013-01-18 15:15:00,
2013-01-18 10:16:00,17.3,-2.3,30.32,WNW,289,7.0,10.0,41,0.00,,---,0.00,VWS V14.01,2013-01-18 15:16:00,
2013-01-18 10:20:00,17.7,-2.0,30.32,WSW,257,2.0,14.0,41,0.00,,---,0.00,VWS V14.01,2013-01-18 15:20:00,
2013-01-18 10:21:00,17.6,-1.6,30.32,NNW,344,10.0,14.0,42,0.00,,---,0.00,VWS V14.01,2013-01-18 15:21:00,
2013-01-18 10:25:00,18.0,-1.2,30.32,WNW,290,2.0,10.0,42,0.00,,---,0.00,VWS V14.01,2013-01-18 15:25:00,
2013-01-18 10:26:00,17.9,-1.8,30.32,WNW,299,2.0,8.0,41,0.00,,---,0.00,VWS V14.01,2013-01-18 15:26:00,
2013-01-18 10:30:00,18.0,-1.2,30.32,WNW,303,13.0,15.0,42,0.00,,---,0.00,VWS V14.01,2013-01-18 15:30:00,
2013-01-18 10:31:00,18.0,-1.7,30.32,North,350,2.0,11.0,41,0.00,,---,0.00,VWS V14.01,2013-01-18 15:31:00,
2013-01-18 10:35:00,18.1,-1.1,30.32,NW,312,10.0,14.0,42,0.00,,---,0.00,VWS V14.01,2013-01-18 15:35:00,
2013-01-18 10:36:00,18.0,-1.7,30.32,West,281,6.0,13.0,41,0.00,,---,0.00,VWS V14.01,2013-01-18 15:36:00,
2013-01-18 10:40:00,18.3,-0.4,30.33,West,265,6.0,14.0,43,0.00,,---,0.00,VWS V14.01,2013-01-18 15:40:00,
2013-01-18 10:41:00,18.1,-1.6,30.32,NNW,344,7.0,14.0,41,0.00,,---,0.00,VWS V14.01,2013-01-18 15:41:00,
2013-01-18 10:45:00,18.5,-0.2,30.32,NNW,338,7.0,13.0,43,0.00,,---,0.00,VWS V14.01,2013-01-18 15:45:00,
2013-01-18 10:46:00,18.4,-0.9,30.32,North,360,8.0,13.0,42,0.00,,---,0.00,VWS V14.01,2013-01-18 15:46:00,
2013-01-18 10:50:00,18.6,-1.2,30.32,West,260,10.0,15.0,41,0.00,,---,0.00,VWS V14.01,2013-01-18 15:50:00,
2013-01-18 10:51:00,18.6,-1.7,30.32,North,349,5.0,15.0,40,0.00,,---,0.00,VWS V14.01,2013-01-18 15:51:00,
2013-01-18 10:55:00,18.7,-1.6,30.32,WNW,292,13.0,14.0,40,0.00,,---,0.00,VWS V14.01,2013-01-18 15:55:00,
2013-01-18 10:56:00,18.7,-1.6,30.32,West,265,13.0,14.0,40,0.00,,---,0.00,VWS V14.01,2013-01-18 15:56:00,
2013-01-18 11:00:00,19.0,-0.3,30.32,WNW,284,4.0,13.0,42,0.00,,---,0.00,VWS V14.01,2013-01-18 16:00:00,
2013-01-18 11:01:00,18.8,-0.5,30.32,WSW,257,2.0,13.0,42,0.00,,---,0.00,VWS V14.01,2013-01-18 16:01:00,
2013-01-18 11:05:00,19.3,-0.5,30.32,WNW,288,7.0,16.0,41,0.00,,---,0.00,VWS V14.01,2013-01-18 16:05:00,
2013-01-18 11:06:00,19.2,0.4,30.32,NNE,15,3.0,16.0,43,0.00,,---,0.00,VWS V14.01,2013-01-18 16:06:00,
2013-01-18 11:10:00,19.3,-1.1,30.32,NNW,346,2.0,12.0,40,0.00,,---,0.00,VWS V14.01,2013-01-18 16:10:00,
2013-01-18 11:11:00,19.4,-1.0,30.32,NW,311,6.0,12.0,40,0.00,,---,0.00,VWS V14.01,2013-01-18 16:11:00,
2013-01-18 11:15:00,19.5,-0.9,30.32,WSW,244,2.0,6.0,40,0.00,,---,0.00,VWS V14.01,2013-01-18 16:15:00,
2013-01-18 11:16:00,19.4,-1.0,30.32,WNW,286,2.0,6.0,40,0.00,,---,0.00,VWS V14.01,2013-01-18 16:16:00,
2013-01-18 11:20:00,19.7,-0.2,30.31,WSW,244,3.0,11.0,41,0.00,,---,0.00,VWS V14.01,2013-01-18 16:20:00,
2013-01-18 11:22:00,19.7,-0.2,30.31,West,278,3.0,11.0,41,0.00,,---,0.00,VWS V14.01,2013-01-18 16:22:00,
2013-01-18 11:25:00,20.0,0.1,30.31,WNW,301,8.0,9.0,41,0.00,,---,0.00,VWS V14.01,2013-01-18 16:25:00,
2013-01-18 11:27:00,20.0,0.1,30.31,West,277,4.0,7.0,41,0.00,,---,0.00,VWS V14.01,2013-01-18 16:27:00,
2013-01-18 11:30:00,19.8,-0.6,30.31,NW,323,5.0,13.0,40,0.00,,---,0.00,VWS V14.01,2013-01-18 16:30:00,
2013-01-18 11:32:00,19.8,-1.1,30.31,WNW,300,5.0,13.0,39,0.00,,---,0.00,VWS V14.01,2013-01-18 16:32:00,
2013-01-18 11:35:00,20.2,0.3,30.31,WSW,246,5.0,13.0,41,0.00,,---,0.00,VWS V14.01,2013-01-18 16:35:00,
2013-01-18 11:37:00,20.1,0.2,30.31,NW,321,12.0,13.0,41,0.00,,---,0.00,VWS V14.01,2013-01-18 16:37:00,
2013-01-18 11:40:00,20.5,0.0,30.32,WNW,295,4.0,16.0,40,0.00,,---,0.00,VWS V14.01,2013-01-18 16:40:00,
2013-01-18 11:42:00,20.4,-0.1,30.32,WSW,249,8.0,13.0,40,0.00,,---,0.00,VWS V14.01,2013-01-18 16:42:00,
2013-01-18 11:45:00,20.4,-0.6,30.32,West,270,5.0,17.0,39,0.00,,---,0.00,VWS V14.01,2013-01-18 16:45:00,
2013-01-18 11:47:00,20.4,-0.6,30.32,West,263,9.0,17.0,39,0.00,,---,0.00,VWS V14.01,2013-01-18 16:47:00,
2013-01-18 11:50:00,20.5,-1.1,30.32,NW,326,11.0,17.0,38,0.00,,---,0.00,VWS V14.01,2013-01-18 16:50:00,
2013-01-18 11:52:00,20.5,-1.1,30.32,WNW,282,4.0,15.0,38,0.00,,---,0.00,VWS V14.01,2013-01-18 16:52:00,
2013-01-18 11:55:00,20.6,-1.0,30.32,North,355,3.0,15.0,38,0.00,,---,0.00,VWS V14.01,2013-01-18 16:55:00,
2013-01-18 11:57:00,20.6,-0.4,30.32,WNW,290,10.0,15.0,39,0.00,,---,0.00,VWS V14.01,2013-01-18 16:57:00,
2013-01-18 12:00:00,20.7,0.7,30.31,North,5,4.0,16.0,41,0.00,,---,0.00,VWS V14.01,2013-01-18 17:00:00,
2013-01-18 12:02:00,20.6,-1.0,30.32,WNW,292,3.0,16.0,38,0.00,,---,0.00,VWS V14.01,2013-01-18 17:02:00,
2013-01-18 12:05:00,21.1,0.6,30.31,WNW,289,6.0,12.0,40,0.00,,---,0.00,VWS V14.01,2013-01-18 17:05:00,
2013-01-18 12:07:00,21.0,0.5,30.31,West,266,3.0,12.0,40,0.00,,---,0.00,VWS V14.01,2013-01-18 17:07:00,
2013-01-18 12:10:00,21.4,0.3,30.32,West,269,8.0,19.0,39,0.00,,---,0.00,VWS V14.01,2013-01-18 17:10:00,
2013-01-18 12:12:00,21.4,-0.2,30.32,WSW,254,2.0,19.0,38,0.00,,---,0.00,VWS V14.01,2013-01-18 17:12:00,
2013-01-18 12:15:00,21.5,-0.2,30.32,West,281,9.0,20.0,38,0.00,,---,0.00,VWS V14.01,2013-01-18 17:15:00,
2013-01-18 12:17:00,21.5,-0.2,30.31,West,274,8.0,20.0,38,0.00,,---,0.00,VWS V14.01,2013-01-18 17:17:00,
2013-01-18 12:20:00,21.5,-0.2,30.31,SW,234,1.0,21.0,38,0.00,,---,0.00,VWS V14.01,2013-01-18 17:20:00,
2013-01-18 12:22:00,21.5,0.4,30.31,West,281,6.0,21.0,39,0.00,,---,0.00,VWS V14.01,2013-01-18 17:22:00,
2013-01-18 12:25:00,21.8,0.1,30.31,West,270,3.0,15.0,38,0.00,,---,0.00,VWS V14.01,2013-01-18 17:25:00,
2013-01-18 12:27:00,21.7,0.0,30.31,NNW,327,5.0,15.0,38,0.00,,---,0.00,VWS V14.01,2013-01-18 17:27:00,
2013-01-18 12:30:00,21.8,0.7,30.31,WNW,303,6.0,15.0,39,0.00,,---,0.00,VWS V14.01,2013-01-18 17:30:00,
2013-01-18 12:32:00,21.8,0.7,30.31,WNW,298,5.0,15.0,39,0.00,,---,0.00,VWS V14.01,2013-01-18 17:32:00,
2013-01-18 12:35:00,22.0,-0.3,30.30,West,266,8.0,14.0,37,0.00,,---,0.00,VWS V14.01,2013-01-18 17:35:00,
2013-01-18 12:37:00,22.0,0.3,30.31,NW,306,10.0,12.0,38,0.00,,---,0.00,VWS V14.01,2013-01-18 17:37:00,
2013-01-18 12:40:00,22.2,1.0,30.30,North,351,4.0,10.0,39,0.00,,---,0.00,VWS V14.01,2013-01-18 17:40:00,
2013-01-18 12:43:00,22.2,0.5,30.30,WNW,284,6.0,10.0,38,0.00,,---,0.00,VWS V14.01,2013-01-18 17:43:00,
2013-01-18 12:45:00,22.4,0.6,30.31,NW,306,1.0,14.0,38,0.00,,---,0.00,VWS V14.01,2013-01-18 17:45:00,
2013-01-18 12:48:00,22.4,0.6,30.31,West,279,7.0,14.0,38,0.00,,---,0.00,VWS V14.01,2013-01-18 17:48:00,
2013-01-18 12:50:00,22.8,1.6,30.31,WSW,246,2.0,13.0,39,0.00,,---,0.00,VWS V14.01,2013-01-18 17:50:00,
2013-01-18 12:53:00,22.7,1.5,30.31,NW,306,4.0,13.0,39,0.00,,---,0.00,VWS V14.01,2013-01-18 17:53:00,
2013-01-18 12:55:00,22.7,-0.2,30.31,WNW,282,8.0,14.0,36,0.00,,---,0.00,VWS V14.01,2013-01-18 17:55:00,
2013-01-18 12:58:00,22.6,0.3,30.31,NNW,328,4.0,14.0,37,0.00,,---,0.00,VWS V14.01,2013-01-18 17:58:00,
2013-01-18 13:00:00,22.9,0.5,30.32,West,261,8.0,18.0,37,0.00,,---,0.00,VWS V14.01,2013-01-18 18:00:00,
2013-01-18 13:03:00,22.9,0.5,30.32,West,268,18.0,18.0,37,0.00,,---,0.00,VWS V14.01,2013-01-18 18:03:00,
2013-01-18 13:05:00,22.8,0.4,30.31,West,277,8.0,21.0,37,0.00,,---,0.00,VWS V14.01,2013-01-18 18:05:00,
2013-01-18 13:08:00,22.8,0.4,30.31,WNW,285,4.0,21.0,37,0.00,,---,0.00,VWS V14.01,2013-01-18 18:08:00,
2013-01-18 13:10:00,23.0,1.2,30.31,WSW,243,6.0,14.0,38,0.00,,---,0.00,VWS V14.01,2013-01-18 18:10:00,
2013-01-18 13:13:00,23.0,0.6,30.31,West,260,6.0,14.0,37,0.00,,---,0.00,VWS V14.01,2013-01-18 18:13:00,
2013-01-18 13:15:00,23.5,1.1,30.31,NW,315,3.0,13.0,37,0.00,,---,0.00,VWS V14.01,2013-01-18 18:15:00,
2013-01-18 13:18:00,23.4,1.0,30.31,West,261,8.0,13.0,37,0.00,,---,0.00,VWS V14.01,2013-01-18 18:18:00,
2013-01-18 13:20:00,23.6,0.0,30.31,West,265,11.0,13.0,35,0.00,,---,0.00,VWS V14.01,2013-01-18 18:20:00,
2013-01-18 13:23:00,23.6,0.0,30.31,WNW,288,3.0,13.0,35,0.00,,---,0.00,VWS V14.01,2013-01-18 18:23:00,
2013-01-18 13:25:00,23.5,-0.1,30.32,NNW,338,7.0,13.0,35,0.00,,---,0.00,VWS V14.01,2013-01-18 18:25:00,
2013-01-18 13:28:00,23.5,-0.1,30.32,North,5,10.0,13.0,35,0.00,,---,0.00,VWS V14.01,2013-01-18 18:28:00,
2013-01-18 13:30:00,23.5,1.1,30.32,SW,233,2.0,13.0,37,0.00,,---,0.00,VWS V14.01,2013-01-18 18:30:00,
2013-01-18 13:33:00,23.4,1.0,30.32,West,263,1.0,13.0,37,0.00,,---,0.00,VWS V14.01,2013-01-18 18:33:00,
2013-01-18 13:35:00,24.0,1.5,30.32,WSW,256,12.0,19.0,37,0.00,,---,0.00,VWS V14.01,2013-01-18 18:35:00,
2013-01-18 13:38:00,23.9,1.4,30.32,WSW,258,10.0,19.0,37,0.00,,---,0.00,VWS V14.01,2013-01-18 18:38:00,
2013-01-18 13:40:00,23.7,1.8,30.32,NW,305,11.0,17.0,38,0.00,,---,0.00,VWS V14.01,2013-01-18 18:40:00,
2013-01-18 13:43:00,23.7,1.8,30.32,NW,309,6.0,17.0,38,0.00,,---,0.00,VWS V14.01,2013-01-18 18:43:00,
2013-01-18 13:45:00,23.8,0.2,30.32,West,273,5.0,18.0,35,0.00,,---,0.00,VWS V14.01,2013-01-18 18:45:00,
2013-01-18 13:48:00,23.8,0.2,30.32,WSW,239,11.0,18.0,35,0.00,,---,0.00,VWS V14.01,2013-01-18 18:48:00,
2013-01-18 13:50:00,23.5,-0.1,30.32,NW,308,2.0,16.0,35,0.00,,---,0.00,VWS V14.01,2013-01-18 18:50:00,
2013-01-18 13:53:00,23.5,-0.1,30.32,NW,316,5.0,16.0,35,0.00,,---,0.00,VWS V14.01,2013-01-18 18:53:00,
2013-01-18 13:55:00,23.6,0.6,30.32,West,267,1.0,12.0,36,0.00,,---,0.00,VWS V14.01,2013-01-18 18:55:00,
2013-01-18 13:58:00,23.5,0.5,30.32,West,267,2.0,12.0,36,0.00,,---,0.00,VWS V14.01,2013-01-18 18:58:00,
2013-01-18 14:03:00,23.9,0.8,30.32,West,267,10.0,12.0,36,0.00,,---,0.00,VWS V14.01,2013-01-18 19:03:00,
2013-01-18 14:05:00,23.9,-0.4,30.32,WNW,300,3.0,11.0,34,0.00,,---,0.00,VWS V14.01,2013-01-18 19:05:00,
2013-01-18 14:08:00,23.9,-0.4,30.32,NW,307,4.0,11.0,34,0.00,,---,0.00,VWS V14.01,2013-01-18 19:08:00,
2013-01-18 14:10:00,23.9,0.2,30.32,WSW,256,6.0,15.0,35,0.00,,---,0.00,VWS V14.01,2013-01-18 19:10:00,
2013-01-18 14:13:00,23.9,0.2,30.32,WSW,258,9.0,15.0,35,0.00,,---,0.00,VWS V14.01,2013-01-18 19:13:00,
2013-01-18 14:15:00,24.0,0.3,30.32,WNW,297,1.0,9.0,35,0.00,,---,0.00,VWS V14.01,2013-01-18 19:15:00,
2013-01-18 14:18:00,24.0,0.3,30.32,WNW,297,1.0,9.0,35,0.00,,---,0.00,VWS V14.01,2013-01-18 19:18:00,
2013-01-18 14:20:00,24.3,1.2,30.33,SW,232,4.0,10.0,36,0.00,,---,0.00,VWS V14.01,2013-01-18 19:20:00,
2013-01-18 14:24:00,24.3,1.2,30.33,SW,232,4.0,10.0,36,0.00,,---,0.00,VWS V14.01,2013-01-18 19:24:00,
2013-01-18 14:29:00,24.3,0.6,30.33,WSW,241,3.0,5.0,35,0.00,,---,0.00,VWS V14.01,2013-01-18 19:29:00,
2013-01-18 14:30:00,24.5,0.8,30.33,NW,323,1.0,16.0,35,0.00,,---,0.00,VWS V14.01,2013-01-18 19:30:00,
2013-01-18 14:34:00,24.5,0.8,30.33,NNW,336,7.0,7.0,35,0.00,,---,0.00,VWS V14.01,2013-01-18 19:34:00,
2013-01-18 14:35:00,24.8,1.0,30.34,West,274,18.0,18.0,35,0.00,,---,0.00,VWS V14.01,2013-01-18 19:35:00,
2013-01-18 14:39:00,24.8,0.4,30.34,West,272,9.0,18.0,34,0.00,,---,0.00,VWS V14.01,2013-01-18 19:39:00,
2013-01-18 14:44:00,24.7,0.3,30.34,WSW,251,3.0,6.0,34,0.00,,---,0.00,VWS V14.01,2013-01-18 19:44:00,
2013-01-18 14:49:00,24.4,-0.6,30.35,West,267,8.0,8.0,33,0.00,,---,0.00,VWS V14.01,2013-01-18 19:49:00,
2013-01-18 14:50:00,24.2,-0.7,30.35,West,259,9.0,14.0,33,0.00,,---,0.00,VWS V14.01,2013-01-18 19:50:00,
2013-01-18 14:54:00,24.2,-0.7,30.35,West,281,13.0,13.0,33,0.00,,---,0.00,VWS V14.01,2013-01-18 19:54:00,
2013-01-18 14:55:00,23.9,-1.0,30.35,West,277,7.0,15.0,33,0.00,,---,0.00,VWS V14.01,2013-01-18 19:55:00,
2013-01-18 14:59:00,23.9,-1.0,30.35,NNW,333,2.0,7.0,33,0.00,,---,0.00,VWS V14.01,2013-01-18 19:59:00,
2013-01-18 15:00:00,23.5,-0.7,30.35,WNW,298,2.0,14.0,34,0.00,,---,0.00,VWS V14.01,2013-01-18 20:00:00,
2013-01-18 15:04:00,23.5,-0.7,30.35,North,350,5.0,7.0,34,0.00,,---,0.00,VWS V14.01,2013-01-18 20:04:00,
2013-01-18 15:05:00,23.4,-0.8,30.35,West,272,7.0,13.0,34,0.00,,---,0.00,VWS V14.01,2013-01-18 20:05:00,
2013-01-18 15:09:00,23.4,-0.8,30.35,NW,305,6.0,9.0,34,0.00,,---,0.00,VWS V14.01,2013-01-18 20:09:00,
2013-01-18 15:10:00,23.3,-0.3,30.34,WSW,252,5.0,16.0,35,0.00,,---,0.00,VWS V14.01,2013-01-18 20:10:00,
2013-01-18 15:14:00,23.3,0.3,30.35,West,268,10.0,13.0,36,0.00,,---,0.00,VWS V14.01,2013-01-18 20:14:00,
2013-01-18 15:15:00,23.2,0.2,30.35,NW,311,3.0,17.0,36,0.00,,---,0.00,VWS V14.01,2013-01-18 20:15:00,
2013-01-18 15:19:00,23.2,0.2,30.35,NW,324,10.0,10.0,36,0.00,,---,0.00,VWS V14.01,2013-01-18 20:19:00,
2013-01-18 15:20:00,23.1,0.1,30.35,NW,322,2.0,13.0,36,0.00,,---,0.00,VWS V14.01,2013-01-18 20:20:00,
2013-01-18 15:24:00,23.1,-0.5,30.34,NW,315,1.0,4.0,35,0.00,,---,0.00,VWS V14.01,2013-01-18 20:24:00,
2013-01-18 15:25:00,23.1,0.1,30.34,NNW,339,6.0,11.0,36,0.00,,---,0.00,VWS V14.01,2013-01-18 20:25:00,
2013-01-18 15:29:00,23.1,0.1,30.34,West,272,3.0,7.0,36,0.00,,---,0.00,VWS V14.01,2013-01-18 20:29:00,
2013-01-18 15:30:00,23.2,0.2,30.34,NW,304,4.0,14.0,36,0.00,,---,0.00,VWS V14.01,2013-01-18 20:30:00,
2013-01-18 15:34:00,23.1,0.1,30.34,WSW,251,12.0,12.0,36,0.00,,---,0.00,VWS V14.01,2013-01-18 20:34:00,
2013-01-18 15:35:00,23.1,0.1,30.34,WSW,246,9.0,19.0,36,0.00,,---,0.00,VWS V14.01,2013-01-18 20:35:00,
2013-01-18 15:39:00,23.1,1.3,30.34,NW,317,5.0,9.0,38,0.00,,---,0.00,VWS V14.01,2013-01-18 20:39:00,
2013-01-18 15:40:00,23.0,-0.6,30.34,West,273,8.0,21.0,35,0.00,,---,0.00,VWS V14.01,2013-01-18 20:40:00,
2013-01-18 15:44:00,22.9,-0.6,30.34,WNW,287,6.0,15.0,35,0.00,,---,0.00,VWS V14.01,2013-01-18 20:44:00,
2013-01-18 15:49:00,22.8,-0.7,30.33,NW,309,6.0,7.0,35,0.00,,---,0.00,VWS V14.01,2013-01-18 20:49:00,
2013-01-18 15:50:00,22.7,-0.2,30.34,West,272,10.0,10.0,36,0.00,,---,0.00,VWS V14.01,2013-01-18 20:50:00,
2013-01-18 15:55:00,22.6,-0.3,30.33,West,280,1.0,11.0,36,0.00,,---,0.00,VWS V14.01,2013-01-18 20:55:00,
2013-01-18 16:00:00,22.5,-0.4,30.34,West,281,2.0,6.0,36,0.00,,---,0.00,VWS V14.01,2013-01-18 21:00:00,
2013-01-18 16:05:00,22.3,0.0,30.34,WSW,244,2.0,7.0,37,0.00,,---,0.00,VWS V14.01,2013-01-18 21:05:00,
2013-01-18 16:10:00,22.2,-1.3,30.34,NW,322,3.0,7.0,35,0.00,,---,0.00,VWS V14.01,2013-01-18 21:10:00,
2013-01-18 16:15:00,22.1,-0.8,30.35,NW,307,1.0,7.0,36,0.00,,---,0.00,VWS V14.01,2013-01-18 21:15:00,
2013-01-18 16:20:00,21.9,-0.4,30.35,NW,315,2.0,3.0,37,0.00,,---,0.00,VWS V14.01,2013-01-18 21:20:00,
2013-01-18 16:25:00,21.7,-0.6,30.35,West,265,4.0,5.0,37,0.00,,---,0.00,VWS V14.01,2013-01-18 21:25:00,
2013-01-18 16:30:00,21.6,0.5,30.35,West,266,0.0,3.0,39,0.00,,---,0.00,VWS V14.01,2013-01-18 21:30:00,
2013-01-18 16:35:00,21.4,-0.2,30.36,West,271,1.0,3.0,38,0.00,,---,0.00,VWS V14.01,2013-01-18 21:35:00,
2013-01-18 16:40:00,21.3,0.2,30.36,NNW,338,5.0,6.0,39,0.00,,---,0.00,VWS V14.01,2013-01-18 21:40:00,
2013-01-18 16:45:00,21.1,0.6,30.36,WNW,302,0.0,3.0,40,0.00,,---,0.00,VWS V14.01,2013-01-18 21:45:00,
2013-01-18 16:50:00,20.9,0.9,30.36,WSW,249,0.0,1.0,41,0.00,,---,0.00,VWS V14.01,2013-01-18 21:50:00,
2013-01-18 16:55:00,20.6,1.2,30.36,West,263,0.0,6.0,42,0.00,,---,0.00,VWS V14.01,2013-01-18 21:55:00,
2013-01-18 17:00:00,20.3,1.9,30.37,West,263,0.0,0.0,44,0.00,,---,0.00,VWS V14.01,2013-01-18 22:00:00,
2013-01-18 17:05:00,20.0,1.1,30.37,West,273,2.0,5.0,43,0.00,,---,0.00,VWS V14.01,2013-01-18 22:05:00,
2013-01-18 17:10:00,19.7,2.8,30.37,West,273,0.0,2.0,47,0.00,,---,0.00,VWS V14.01,2013-01-18 22:10:00,
2013-01-18 17:15:00,19.3,3.7,30.38,SW,234,3.0,5.0,50,0.00,,---,0.00,VWS V14.01,2013-01-18 22:15:00,
2013-01-18 17:20:00,19.0,2.1,30.38,WSW,247,3.0,10.0,47,0.00,,---,0.00,VWS V14.01,2013-01-18 22:20:00,
2013-01-18 17:21:00,18.9,1.5,30.38,North,355,2.0,10.0,46,0.00,,---,0.00,VWS V14.01,2013-01-18 22:21:00,
2013-01-18 17:25:00,19.0,1.6,30.39,WSW,240,0.0,7.0,46,0.00,,---,0.00,VWS V14.01,2013-01-18 22:25:00,
2013-01-18 17:26:00,19.0,2.6,30.39,WSW,238,3.0,5.0,48,0.00,,---,0.00,VWS V14.01,2013-01-18 22:26:00,
2013-01-18 17:30:00,19.0,1.2,30.39,WSW,237,0.0,5.0,45,0.00,,---,0.00,VWS V14.01,2013-01-18 22:30:00,
2013-01-18 17:31:00,19.0,1.6,30.39,SW,230,1.0,5.0,46,0.00,,---,0.00,VWS V14.01,2013-01-18 22:31:00,
2013-01-18 17:35:00,19.1,2.2,30.39,West,270,0.0,4.0,47,0.00,,---,0.00,VWS V14.01,2013-01-18 22:35:00,
2013-01-18 17:36:00,19.1,1.7,30.39,WSW,238,3.0,3.0,46,0.00,,---,0.00,VWS V14.01,2013-01-18 22:36:00,
2013-01-18 17:40:00,19.1,1.7,30.39,West,272,1.0,7.0,46,0.00,,---,0.00,VWS V14.01,2013-01-18 22:40:00,
2013-01-18 17:41:00,19.1,1.7,30.39,West,271,5.0,7.0,46,0.00,,---,0.00,VWS V14.01,2013-01-18 22:41:00,
2013-01-18 17:45:00,19.0,2.1,30.39,West,280,1.0,5.0,47,0.00,,---,0.00,VWS V14.01,2013-01-18 22:45:00,
2013-01-18 17:46:00,19.0,2.1,30.39,West,280,2.0,5.0,47,0.00,,---,0.00,VWS V14.01,2013-01-18 22:46:00,
2013-01-18 17:50:00,19.0,1.6,30.39,WSW,255,1.0,6.0,46,0.00,,---,0.00,VWS V14.01,2013-01-18 22:50:00,
2013-01-18 17:51:00,19.0,1.6,30.39,WSW,250,3.0,6.0,46,0.00,,---,0.00,VWS V14.01,2013-01-18 22:51:00,
2013-01-18 17:56:00,19.0,1.6,30.39,WSW,255,3.0,3.0,46,0.00,,---,0.00,VWS V14.01,2013-01-18 22:56:00,
2013-01-18 18:00:00,18.9,2.0,30.39,WSW,237,0.0,2.0,47,0.00,,---,0.00,VWS V14.01,2013-01-18 23:00:00,
2013-01-18 18:01:00,18.9,2.0,30.39,WSW,237,0.0,2.0,47,0.00,,---,0.00,VWS V14.01,2013-01-18 23:01:00,
2013-01-18 18:05:00,18.7,3.6,30.39,WSW,237,0.0,2.0,51,0.00,,---,0.00,VWS V14.01,2013-01-18 23:05:00,
2013-01-18 18:06:00,18.8,3.7,30.40,WSW,237,0.0,2.0,51,0.00,,---,0.00,VWS V14.01,2013-01-18 23:06:00,
2013-01-18 18:10:00,18.5,3.8,30.40,WSW,237,0.0,2.0,52,0.00,,---,0.00,VWS V14.01,2013-01-18 23:10:00,
2013-01-18 18:11:00,18.6,4.3,30.40,WSW,237,0.0,0.0,53,0.00,,---,0.00,VWS V14.01,2013-01-18 23:11:00,
2013-01-18 18:15:00,18.2,4.8,30.40,WSW,237,0.0,0.0,55,0.00,,---,0.00,VWS V14.01,2013-01-18 23:15:00,
2013-01-18 18:16:00,18.3,4.1,30.40,WSW,237,0.0,0.0,53,0.00,,---,0.00,VWS V14.01,2013-01-18 23:16:00,
2013-01-18 18:20:00,17.9,3.7,30.40,WSW,237,0.0,0.0,53,0.00,,---,0.00,VWS V14.01,2013-01-18 23:20:00,
2013-01-18 18:21:00,18.0,4.6,30.40,WSW,237,0.0,0.0,55,0.00,,---,0.00,VWS V14.01,2013-01-18 23:21:00,
2013-01-18 18:25:00,17.6,3.8,30.40,WSW,237,0.0,0.0,54,0.00,,---,0.00,VWS V14.01,2013-01-18 23:25:00,
2013-01-18 18:26:00,17.7,3.5,30.40,WSW,237,0.0,0.0,53,0.00,,---,0.00,VWS V14.01,2013-01-18 23:26:00,
2013-01-18 18:30:00,17.2,4.2,30.40,WSW,237,0.0,0.0,56,0.00,,---,0.00,VWS V14.01,2013-01-18 23:30:00,
2013-01-18 18:31:00,17.4,4.0,30.40,WSW,237,0.0,0.0,55,0.00,,---,0.00,VWS V14.01,2013-01-18 23:31:00,
2013-01-18 18:35:00,17.0,4.4,30.41,WSW,237,0.0,0.0,57,0.00,,---,0.00,VWS V14.01,2013-01-18 23:35:00,
2013-01-18 18:37:00,17.0,4.4,30.40,WSW,237,0.0,0.0,57,0.00,,---,0.00,VWS V14.01,2013-01-18 23:37:00,
2013-01-18 18:40:00,16.6,4.4,30.41,WSW,237,2.0,3.0,58,0.00,,---,0.00,VWS V14.01,2013-01-18 23:40:00,
2013-01-18 18:42:00,16.7,4.5,30.40,WSW,237,0.0,2.0,58,0.00,,---,0.00,VWS V14.01,2013-01-18 23:42:00,
2013-01-18 18:47:00,16.4,5.0,30.40,WSW,237,4.0,4.0,60,0.00,,---,0.00,VWS V14.01,2013-01-18 23:47:00,
2013-01-18 18:50:00,16.1,4.3,30.41,SSW,208,0.0,5.0,59,0.00,,---,0.00,VWS V14.01,2013-01-18 23:50:00,
2013-01-18 18:52:00,16.2,3.7,30.41,WSW,243,1.0,5.0,57,0.00,,---,0.00,VWS V14.01,2013-01-18 23:52:00,
2013-01-18 18:55:00,16.0,3.5,30.41,SW,215,2.0,4.0,57,0.00,,---,0.00,VWS V14.01,2013-01-18 23:55:00,
2013-01-18 18:57:00,16.0,3.5,30.41,SSW,209,0.0,4.0,57,0.00,,---,0.00,VWS V14.01,2013-01-18 23:57:00,
2013-01-18 19:00:00,15.9,3.4,30.41,SW,215,0.0,4.0,57,0.00,,---,0.00,VWS V14.01,2013-01-19 00:00:00,
2013-01-18 19:02:00,15.9,3.8,30.40,SW,215,2.0,4.0,58,0.00,,---,0.00,VWS V14.01,2013-01-19 00:02:00,
2013-01-18 19:05:00,16.1,3.6,30.40,SW,215,0.0,2.0,57,0.00,,---,0.00,VWS V14.01,2013-01-19 00:05:00,
2013-01-18 19:07:00,16.0,3.8,30.40,SW,215,0.0,2.0,58,0.00,,---,0.00,VWS V14.01,2013-01-19 00:07:00,
2013-01-18 19:10:00,16.2,2.9,30.41,SW,215,0.0,2.0,55,0.00,,---,0.00,VWS V14.01,2013-01-19 00:10:00,
2013-01-18 19:12:00,16.1,3.2,30.41,SW,215,1.0,2.0,56,0.00,,---,0.00,VWS V14.01,2013-01-19 00:12:00,
2013-01-18 19:17:00,16.1,3.6,30.41,SW,215,2.0,2.0,57,0.00,,---,0.00,VWS V14.01,2013-01-19 00:17:00,
2013-01-18 19:20:00,16.1,3.2,30.41,SW,215,1.0,2.0,56,0.00,,---,0.00,VWS V14.01,2013-01-19 00:20:00,
2013-01-18 19:22:00,16.1,3.6,30.41,SW,215,1.0,2.0,57,0.00,,---,0.00,VWS V14.01,2013-01-19 00:22:00,
2013-01-18 19:25:00,16.0,3.5,30.41,SW,215,1.0,4.0,57,0.00,,---,0.00,VWS V14.01,2013-01-19 00:25:00,
2013-01-18 19:27:00,16.0,3.1,30.41,SW,215,0.0,4.0,56,0.00,,---,0.00,VWS V14.01,2013-01-19 00:27:00,
2013-01-18 19:30:00,15.9,3.8,30.41,SW,215,2.0,2.0,58,0.00,,---,0.00,VWS V14.01,2013-01-19 00:30:00,
2013-01-18 19:32:00,15.9,3.4,30.41,SW,215,0.0,2.0,57,0.00,,---,0.00,VWS V14.01,2013-01-19 00:32:00,
2013-01-18 19:35:00,15.8,4.4,30.40,SW,215,1.0,3.0,60,0.00,,---,0.00,VWS V14.01,2013-01-19 00:35:00,
2013-01-18 19:37:00,15.8,4.4,30.41,SW,215,0.0,3.0,60,0.00,,---,0.00,VWS V14.01,2013-01-19 00:37:00,
2013-01-18 19:40:00,15.8,5.1,30.41,SW,215,0.0,1.0,62,0.00,,---,0.00,VWS V14.01,2013-01-19 00:40:00,
2013-01-18 19:42:00,15.8,4.8,30.41,SW,215,0.0,1.0,61,0.00,,---,0.00,VWS V14.01,2013-01-19 00:42:00,
2013-01-18 19:47:00,15.8,4.8,30.41,SW,215,0.0,1.0,61,0.00,,---,0.00,VWS V14.01,2013-01-19 00:47:00,
2013-01-18 19:50:00,15.9,4.5,30.41,SW,215,0.0,0.0,60,0.00,,---,0.00,VWS V14.01,2013-01-19 00:50:00,
2013-01-18 19:52:00,15.8,4.0,30.41,SW,215,0.0,0.0,59,0.00,,---,0.00,VWS V14.01,2013-01-19 00:52:00,
2013-01-18 19:55:00,15.8,4.4,30.41,SW,215,0.0,0.0,60,0.00,,---,0.00,VWS V14.01,2013-01-19 00:55:00,
2013-01-18 19:57:00,15.9,4.5,30.41,SW,215,0.0,0.0,60,0.00,,---,0.00,VWS V14.01,2013-01-19 00:57:00,
2013-01-18 20:00:00,15.9,4.5,30.41,SW,215,0.0,1.0,60,0.00,,---,0.00,VWS V14.01,2013-01-19 01:00:00,
2013-01-18 20:03:00,15.8,3.7,30.41,SW,215,0.0,1.0,58,0.00,,---,0.00,VWS V14.01,2013-01-19 01:03:00,
2013-01-18 20:05:00,15.8,5.1,30.41,SW,215,0.0,2.0,62,0.00,,---,0.00,VWS V14.01,2013-01-19 01:05:00,
2013-01-18 20:08:00,15.8,4.8,30.41,SW,215,0.0,2.0,61,0.00,,---,0.00,VWS V14.01,2013-01-19 01:08:00,
2013-01-18 20:10:00,15.5,4.5,30.41,SW,215,0.0,2.0,61,0.00,,---,0.00,VWS V14.01,2013-01-19 01:10:00,
2013-01-18 20:13:00,15.6,4.9,30.41,SW,215,2.0,2.0,62,0.00,,---,0.00,VWS V14.01,2013-01-19 01:13:00,
2013-01-18 20:15:00,15.5,4.1,30.42,SW,215,0.0,0.0,60,0.00,,---,0.00,VWS V14.01,2013-01-19 01:15:00,
2013-01-18 20:18:00,15.5,4.5,30.42,SW,215,0.0,0.0,61,0.00,,---,0.00,VWS V14.01,2013-01-19 01:18:00,
2013-01-18 20:20:00,15.5,4.5,30.42,SW,215,0.0,0.0,61,0.00,,---,0.00,VWS V14.01,2013-01-19 01:20:00,
2013-01-18 20:23:00,15.5,4.8,30.42,SW,215,0.0,0.0,62,0.00,,---,0.00,VWS V14.01,2013-01-19 01:23:00,
2013-01-18 20:25:00,15.5,4.5,30.42,SW,215,0.0,1.0,61,0.00,,---,0.00,VWS V14.01,2013-01-19 01:25:00,
2013-01-18 20:28:00,15.5,4.5,30.42,SW,215,0.0,1.0,61,0.00,,---,0.00,VWS V14.01,2013-01-19 01:28:00,
2013-01-18 20:33:00,15.5,4.5,30.42,SW,215,0.0,0.0,61,0.00,,---,0.00,VWS V14.01,2013-01-19 01:33:00,
2013-01-18 20:35:00,15.4,4.4,30.42,SW,215,0.0,0.0,61,0.00,,---,0.00,VWS V14.01,2013-01-19 01:35:00,
2013-01-18 20:38:00,15.4,4.4,30.42,SW,215,0.0,0.0,61,0.00,,---,0.00,VWS V14.01,2013-01-19 01:38:00,
2013-01-18 20:40:00,15.2,5.2,30.41,SW,215,0.0,0.0,64,0.00,,---,0.00,VWS V14.01,2013-01-19 01:40:00,
2013-01-18 20:43:00,15.3,5.3,30.41,SW,215,0.0,0.0,64,0.00,,---,0.00,VWS V14.01,2013-01-19 01:43:00,
2013-01-18 20:45:00,15.1,5.1,30.41,SSW,213,0.0,2.0,64,0.00,,---,0.00,VWS V14.01,2013-01-19 01:45:00,
2013-01-18 20:48:00,15.1,5.1,30.41,SSW,213,0.0,2.0,64,0.00,,---,0.00,VWS V14.01,2013-01-19 01:48:00,
2013-01-18 20:50:00,15.1,4.1,30.41,South,177,0.0,4.0,61,0.00,,---,0.00,VWS V14.01,2013-01-19 01:50:00,
2013-01-18 20:53:00,15.1,4.1,30.41,South,177,0.0,4.0,61,0.00,,---,0.00,VWS V14.01,2013-01-19 01:53:00,
2013-01-18 20:55:00,15.1,4.1,30.41,South,177,0.0,1.0,61,0.00,,---,0.00,VWS V14.01,2013-01-19 01:55:00,
2013-01-18 20:58:00,15.2,4.2,30.41,South,177,0.0,1.0,61,0.00,,---,0.00,VWS V14.01,2013-01-19 01:58:00,
2013-01-18 21:00:00,15.2,4.9,30.41,South,185,0.0,4.0,63,0.00,,---,0.00,VWS V14.01,2013-01-19 02:00:00,
2013-01-18 21:03:00,15.2,4.9,30.41,South,185,0.0,4.0,63,0.00,,---,0.00,VWS V14.01,2013-01-19 02:03:00,
2013-01-18 21:05:00,15.2,5.2,30.41,South,185,0.0,1.0,64,0.00,,---,0.00,VWS V14.01,2013-01-19 02:05:00,
2013-01-18 21:08:00,15.3,5.3,30.41,South,185,0.0,1.0,64,0.00,,---,0.00,VWS V14.01,2013-01-19 02:08:00,
2013-01-18 21:13:00,15.2,4.9,30.41,South,185,0.0,1.0,63,0.00,,---,0.00,VWS V14.01,2013-01-19 02:13:00,
2013-01-18 21:15:00,15.3,5.3,30.41,South,173,0.0,1.0,64,0.00,,---,0.00,VWS V14.01,2013-01-19 02:15:00,
2013-01-18 21:18:00,15.3,5.0,30.41,South,173,0.0,1.0,63,0.00,,---,0.00,VWS V14.01,2013-01-19 02:18:00,
2013-01-18 21:20:00,15.3,5.3,30.41,South,174,0.0,2.0,64,0.00,,---,0.00,VWS V14.01,2013-01-19 02:20:00,
2013-01-18 21:23:00,15.3,5.3,30.41,South,174,0.0,2.0,64,0.00,,---,0.00,VWS V14.01,2013-01-19 02:23:00,
2013-01-18 21:25:00,15.4,5.8,30.40,SSE,161,0.0,2.0,65,0.00,,---,0.00,VWS V14.01,2013-01-19 02:25:00,
2013-01-18 21:29:00,15.4,5.8,30.40,SSE,161,0.0,2.0,65,0.00,,---,0.00,VWS V14.01,2013-01-19 02:29:00,
2013-01-18 21:30:00,15.4,4.7,30.41,SSE,163,1.0,2.0,62,0.00,,---,0.00,VWS V14.01,2013-01-19 02:30:00,
2013-01-18 21:34:00,15.4,4.7,30.41,SSE,163,1.0,2.0,62,0.00,,---,0.00,VWS V14.01,2013-01-19 02:34:00,
2013-01-18 21:35:00,15.5,5.2,30.40,SSE,163,0.0,1.0,63,0.00,,---,0.00,VWS V14.01,2013-01-19 02:35:00,
2013-01-18 21:39:00,15.5,5.2,30.40,SSE,163,0.0,1.0,63,0.00,,---,0.00,VWS V14.01,2013-01-19 02:39:00,
2013-01-18 21:40:00,15.7,5.0,30.41,SSE,165,0.0,2.0,62,0.00,,---,0.00,VWS V14.01,2013-01-19 02:40:00,
2013-01-18 21:44:00,15.7,5.0,30.41,SSE,165,0.0,2.0,62,0.00,,---,0.00,VWS V14.01,2013-01-19 02:44:00,
2013-01-18 21:50:00,16.0,4.2,30.41,SSW,202,0.0,1.0,59,0.00,,---,0.00,VWS V14.01,2013-01-19 02:50:00,
2013-01-18 21:55:00,16.2,4.8,30.41,SSW,202,0.0,2.0,60,0.00,,---,0.00,VWS V14.01,2013-01-19 02:55:00,
2013-01-18 22:00:00,16.2,5.1,30.41,SSW,202,0.0,2.0,61,0.00,,---,0.00,VWS V14.01,2013-01-19 03:00:00,
2013-01-18 22:10:00,16.1,5.0,30.40,South,180,0.0,4.0,61,0.00,,---,0.00,VWS V14.01,2013-01-19 03:10:00,
2013-01-18 22:15:00,16.0,4.9,30.40,SSW,202,1.0,3.0,61,0.00,,---,0.00,VWS V14.01,2013-01-19 03:15:00,
2013-01-18 22:20:00,16.0,4.9,30.40,South,180,1.0,5.0,61,0.00,,---,0.00,VWS V14.01,2013-01-19 03:20:00,
2013-01-18 22:25:00,16.0,4.9,30.40,South,180,0.0,3.0,61,0.00,,---,0.00,VWS V14.01,2013-01-19 03:25:00,
2013-01-18 22:30:00,16.1,5.4,30.40,South,180,0.0,3.0,62,0.00,,---,0.00,VWS V14.01,2013-01-19 03:30:00,
2013-01-18 22:35:00,16.2,5.5,30.39,South,180,0.0,2.0,62,0.00,,---,0.00,VWS V14.01,2013-01-19 03:35:00,
2013-01-18 22:40:00,16.3,5.6,30.38,South,180,0.0,4.0,62,0.00,,---,0.00,VWS V14.01,2013-01-19 03:40:00,
2013-01-18 22:45:00,16.4,5.7,30.38,South,180,0.0,2.0,62,0.00,,---,0.00,VWS V14.01,2013-01-19 03:45:00,
2013-01-18 22:50:00,16.4,6.0,30.38,South,180,0.0,1.0,63,0.00,,---,0.00,VWS V14.01,2013-01-19 03:50:00,
2013-01-18 22:55:00,16.6,6.2,30.38,South,180,0.0,1.0,63,0.00,,---,0.00,VWS V14.01,2013-01-19 03:55:00,
2013-01-18 23:00:00,16.8,5.7,30.38,South,180,0.0,1.0,61,0.00,,---,0.00,VWS V14.01,2013-01-19 04:00:00,
2013-01-18 23:05:00,17.0,5.9,30.38,South,180,0.0,2.0,61,0.00,,---,0.00,VWS V14.01,2013-01-19 04:05:00,
2013-01-18 23:10:00,17.2,6.4,30.37,South,180,0.0,1.0,62,0.00,,---,0.00,VWS V14.01,2013-01-19 04:10:00,
2013-01-18 23:15:00,17.3,6.5,30.36,South,180,0.0,4.0,62,0.00,,---,0.00,VWS V14.01,2013-01-19 04:15:00,
2013-01-18 23:20:00,17.5,6.4,30.37,South,180,0.0,2.0,61,0.00,,---,0.00,VWS V14.01,2013-01-19 04:20:00,
2013-01-18 23:25:00,17.5,6.4,30.37,South,180,0.0,4.0,61,0.00,,---,0.00,VWS V14.01,2013-01-19 04:25:00,
2013-01-18 23:30:00,17.7,6.6,30.36,SE,135,0.0,2.0,61,0.00,,---,0.00,VWS V14.01,2013-01-19 04:30:00,
2013-01-18 23:40:00,18.4,7.6,30.36,South,180,1.0,4.0,62,0.00,,---,0.00,VWS V14.01,2013-01-19 04:40:00,
2013-01-18 23:45:00,18.7,7.1,30.35,SE,135,1.0,5.0,60,0.00,,---,0.00,VWS V14.01,2013-01-19 04:45:00,
2013-01-18 23:50:00,18.9,7.7,30.35,SSE,158,0.0,4.0,61,0.00,,---,0.00,VWS V14.01,2013-01-19 04:50:00,
2013-01-18 23:55:00,19.0,7.8,30.35,SE,135,0.0,4.0,61,0.00,,---,0.00,VWS V14.01,2013-01-19 04:55:00,